sensor_id;sensor_type;location;lat;lon;timestamp;P1;durP1;ratioP1;P2;durP2;ratioP2
56269;SDS011;42176;43.240;27.880;2022-12-26T00:00:52;15.40;;;7.63;;
56269;SDS011;42176;43.240;27.880;2022-12-26T00:03:19;14.25;;;7.00;;
56269;SDS011;42176;43.240;27.880;2022-12-26T00:05:44;18.95;;;8.43;;
56269;SDS011;42176;43.240;27.880;2022-12-26T00:08:10;12.43;;;7.07;;
56269;SDS011;42176;43.240;27.880;2022-12-26T00:10:35;8.27;;;4.93;;
56269;SDS011;42176;43.240;27.880;2022-12-26T00:13:01;10.52;;;6.55;;
56269;SDS011;42176;43.240;27.880;2022-12-26T00:15:26;11.70;;;5.60;;
56269;SDS011;42176;43.240;27.880;2022-12-26T00:17:51;10.13;;;5.57;;
56269;SDS011;42176;43.240;27.880;2022-12-26T00:20:17;16.60;;;7.95;;
56269;SDS011;42176;43.240;27.880;2022-12-26T00:22:42;22.88;;;11.45;;
56269;SDS011;42176;43.240;27.880;2022-12-26T00:25:08;17.92;;;8.13;;
56269;SDS011;42176;43.240;27.880;2022-12-26T00:27:33;17.27;;;8.43;;
56269;SDS011;42176;43.240;27.880;2022-12-26T00:29:59;19.90;;;9.02;;
56269;SDS011;42176;43.240;27.880;2022-12-26T00:32:24;26.60;;;12.65;;
56269;SDS011;42176;43.240;27.880;2022-12-26T00:34:50;20.58;;;10.18;;
56269;SDS011;42176;43.240;27.880;2022-12-26T00:37:15;25.15;;;11.57;;
56269;SDS011;42176;43.240;27.880;2022-12-26T00:39:40;23.42;;;11.07;;
56269;SDS011;42176;43.240;27.880;2022-12-26T00:42:06;28.30;;;14.43;;
56269;SDS011;42176;43.240;27.880;2022-12-26T00:44:31;10.38;;;6.53;;
56269;SDS011;42176;43.240;27.880;2022-12-26T00:46:57;17.60;;;9.52;;
56269;SDS011;42176;43.240;27.880;2022-12-26T00:49:22;19.85;;;9.85;;
56269;SDS011;42176;43.240;27.880;2022-12-26T00:51:48;28.92;;;13.85;;
56269;SDS011;42176;43.240;27.880;2022-12-26T00:54:13;24.35;;;13.60;;
56269;SDS011;42176;43.240;27.880;2022-12-26T00:56:38;28.55;;;11.00;;
56269;SDS011;42176;43.240;27.880;2022-12-26T00:59:04;25.77;;;10.75;;
56269;SDS011;42176;43.240;27.880;2022-12-26T01:01:29;16.60;;;8.77;;
56269;SDS011;42176;43.240;27.880;2022-12-26T01:03:55;28.50;;;14.98;;
56269;SDS011;42176;43.240;27.880;2022-12-26T01:06:21;27.02;;;13.48;;
56269;SDS011;42176;43.240;27.880;2022-12-26T01:08:47;21.80;;;10.95;;
56269;SDS011;42176;43.240;27.880;2022-12-26T01:11:14;24.05;;;10.77;;
56269;SDS011;42176;43.240;27.880;2022-12-26T01:14:01;34.15;;;15.77;;
56269;SDS011;42176;43.240;27.880;2022-12-26T01:16:27;27.67;;;14.07;;
56269;SDS011;42176;43.240;27.880;2022-12-26T01:18:52;22.08;;;10.18;;
56269;SDS011;42176;43.240;27.880;2022-12-26T01:21:17;21.42;;;10.98;;
56269;SDS011;42176;43.240;27.880;2022-12-26T01:23:43;24.05;;;9.93;;
56269;SDS011;42176;43.240;27.880;2022-12-26T01:26:08;26.27;;;13.38;;
56269;SDS011;42176;43.240;27.880;2022-12-26T01:28:34;25.98;;;13.07;;
56269;SDS011;42176;43.240;27.880;2022-12-26T01:31:00;27.00;;;12.05;;
56269;SDS011;42176;43.240;27.880;2022-12-26T01:33:29;21.23;;;9.75;;
56269;SDS011;42176;43.240;27.880;2022-12-26T01:35:55;23.60;;;11.45;;
56269;SDS011;42176;43.240;27.880;2022-12-26T01:38:20;22.25;;;11.75;;
56269;SDS011;42176;43.240;27.880;2022-12-26T01:40:46;24.25;;;12.68;;
56269;SDS011;42176;43.240;27.880;2022-12-26T01:43:13;21.20;;;10.10;;
56269;SDS011;42176;43.240;27.880;2022-12-26T01:45:40;21.45;;;11.68;;
56269;SDS011;42176;43.240;27.880;2022-12-26T01:50:57;22.15;;;10.88;;
56269;SDS011;42176;43.240;27.880;2022-12-26T01:55:59;19.17;;;10.98;;
56269;SDS011;42176;43.240;27.880;2022-12-26T01:58:29;24.45;;;12.18;;
56269;SDS011;42176;43.240;27.880;2022-12-26T02:01:00;25.73;;;10.40;;
56269;SDS011;42176;43.240;27.880;2022-12-26T02:03:28;25.17;;;12.88;;
56269;SDS011;42176;43.240;27.880;2022-12-26T02:06:13;28.70;;;12.63;;
56269;SDS011;42176;43.240;27.880;2022-12-26T02:08:39;18.75;;;7.72;;
56269;SDS011;42176;43.240;27.880;2022-12-26T02:11:12;18.48;;;9.20;;
56269;SDS011;42176;43.240;27.880;2022-12-26T02:13:43;22.45;;;11.52;;
56269;SDS011;42176;43.240;27.880;2022-12-26T02:16:11;13.50;;;6.53;;
56269;SDS011;42176;43.240;27.880;2022-12-26T02:18:38;16.23;;;8.60;;
56269;SDS011;42176;43.240;27.880;2022-12-26T02:21:08;17.40;;;8.60;;
56269;SDS011;42176;43.240;27.880;2022-12-26T02:45:41;23.20;;;11.80;;
56269;SDS011;42176;43.240;27.880;2022-12-26T02:48:32;16.45;;;7.63;;
56269;SDS011;42176;43.240;27.880;2022-12-26T02:57:10;21.33;;;8.82;;
56269;SDS011;42176;43.240;27.880;2022-12-26T03:00:02;21.65;;;9.43;;
56269;SDS011;42176;43.240;27.880;2022-12-26T03:05:57;19.17;;;9.15;;
56269;SDS011;42176;43.240;27.880;2022-12-26T03:08:47;21.20;;;8.20;;
56269;SDS011;42176;43.240;27.880;2022-12-26T03:11:37;17.63;;;8.50;;
56269;SDS011;42176;43.240;27.880;2022-12-26T03:14:25;18.00;;;8.20;;
56269;SDS011;42176;43.240;27.880;2022-12-26T03:17:06;15.15;;;8.18;;
56269;SDS011;42176;43.240;27.880;2022-12-26T03:19:45;15.70;;;7.88;;
56269;SDS011;42176;43.240;27.880;2022-12-26T03:22:29;20.80;;;10.27;;
56269;SDS011;42176;43.240;27.880;2022-12-26T03:25:03;19.42;;;10.05;;
56269;SDS011;42176;43.240;27.880;2022-12-26T03:27:50;13.35;;;7.45;;
56269;SDS011;42176;43.240;27.880;2022-12-26T03:30:17;11.40;;;4.78;;
56269;SDS011;42176;43.240;27.880;2022-12-26T03:33:01;25.38;;;12.20;;
56269;SDS011;42176;43.240;27.880;2022-12-26T03:35:28;22.25;;;12.40;;
56269;SDS011;42176;43.240;27.880;2022-12-26T03:38:06;15.23;;;7.50;;
56269;SDS011;42176;43.240;27.880;2022-12-26T03:43:37;14.60;;;7.30;;
56269;SDS011;42176;43.240;27.880;2022-12-26T03:49:51;22.80;;;11.73;;
56269;SDS011;42176;43.240;27.880;2022-12-26T03:55:59;18.38;;;11.27;;
56269;SDS011;42176;43.240;27.880;2022-12-26T03:59:10;25.00;;;12.00;;
56269;SDS011;42176;43.240;27.880;2022-12-26T04:01:59;17.60;;;8.40;;
56269;SDS011;42176;43.240;27.880;2022-12-26T04:04:48;17.35;;;7.90;;
56269;SDS011;42176;43.240;27.880;2022-12-26T04:07:42;52.85;;;32.20;;
56269;SDS011;42176;43.240;27.880;2022-12-26T04:10:33;21.05;;;11.65;;
56269;SDS011;42176;43.240;27.880;2022-12-26T04:14:10;20.08;;;9.32;;
56269;SDS011;42176;43.240;27.880;2022-12-26T04:16:33;48.45;;;24.27;;
56269;SDS011;42176;43.240;27.880;2022-12-26T04:19:30;36.25;;;19.33;;
56269;SDS011;42176;43.240;27.880;2022-12-26T04:22:06;33.97;;;20.00;;
56269;SDS011;42176;43.240;27.880;2022-12-26T04:28:01;67.22;;;38.95;;
56269;SDS011;42176;43.240;27.880;2022-12-26T04:30:48;36.22;;;21.10;;
56269;SDS011;42176;43.240;27.880;2022-12-26T04:33:40;21.58;;;10.98;;
56269;SDS011;42176;43.240;27.880;2022-12-26T04:36:33;13.30;;;7.47;;
56269;SDS011;42176;43.240;27.880;2022-12-26T04:39:39;40.17;;;24.00;;
56269;SDS011;42176;43.240;27.880;2022-12-26T04:42:26;55.85;;;36.80;;
56269;SDS011;42176;43.240;27.880;2022-12-26T04:45:12;38.65;;;21.33;;
56269;SDS011;42176;43.240;27.880;2022-12-26T04:47:38;42.05;;;21.75;;
56269;SDS011;42176;43.240;27.880;2022-12-26T04:50:23;44.15;;;23.75;;
56269;SDS011;42176;43.240;27.880;2022-12-26T04:52:49;23.88;;;14.07;;
56269;SDS011;42176;43.240;27.880;2022-12-26T04:55:31;34.97;;;18.40;;
56269;SDS011;42176;43.240;27.880;2022-12-26T04:57:59;42.35;;;21.17;;
56269;SDS011;42176;43.240;27.880;2022-12-26T05:00:25;40.10;;;19.48;;
56269;SDS011;42176;43.240;27.880;2022-12-26T05:02:52;29.00;;;13.15;;
56269;SDS011;42176;43.240;27.880;2022-12-26T05:05:39;28.35;;;12.43;;
56269;SDS011;42176;43.240;27.880;2022-12-26T05:08:35;30.42;;;17.60;;
56269;SDS011;42176;43.240;27.880;2022-12-26T05:11:22;35.95;;;17.10;;
56269;SDS011;42176;43.240;27.880;2022-12-26T05:13:48;22.92;;;9.60;;
56269;SDS011;42176;43.240;27.880;2022-12-26T05:16:15;27.92;;;13.07;;
56269;SDS011;42176;43.240;27.880;2022-12-26T05:18:59;21.48;;;11.35;;
56269;SDS011;42176;43.240;27.880;2022-12-26T05:21:43;21.60;;;12.65;;
56269;SDS011;42176;43.240;27.880;2022-12-26T05:24:28;29.38;;;13.27;;
56269;SDS011;42176;43.240;27.880;2022-12-26T05:27:17;20.77;;;10.95;;
56269;SDS011;42176;43.240;27.880;2022-12-26T05:30:02;14.63;;;7.32;;
56269;SDS011;42176;43.240;27.880;2022-12-26T05:32:27;20.02;;;9.23;;
56269;SDS011;42176;43.240;27.880;2022-12-26T05:35:11;15.88;;;8.18;;
56269;SDS011;42176;43.240;27.880;2022-12-26T05:37:37;13.88;;;7.90;;
56269;SDS011;42176;43.240;27.880;2022-12-26T05:40:02;25.80;;;13.20;;
56269;SDS011;42176;43.240;27.880;2022-12-26T05:42:28;29.70;;;14.43;;
56269;SDS011;42176;43.240;27.880;2022-12-26T05:44:53;21.45;;;9.50;;
56269;SDS011;42176;43.240;27.880;2022-12-26T05:47:19;13.02;;;6.70;;
56269;SDS011;42176;43.240;27.880;2022-12-26T05:49:44;20.00;;;7.95;;
56269;SDS011;42176;43.240;27.880;2022-12-26T05:52:09;18.15;;;9.57;;
56269;SDS011;42176;43.240;27.880;2022-12-26T05:54:35;17.13;;;9.82;;
56269;SDS011;42176;43.240;27.880;2022-12-26T05:57:00;20.60;;;10.30;;
56269;SDS011;42176;43.240;27.880;2022-12-26T05:59:27;17.73;;;7.95;;
56269;SDS011;42176;43.240;27.880;2022-12-26T06:01:53;13.70;;;7.05;;
56269;SDS011;42176;43.240;27.880;2022-12-26T06:04:19;12.98;;;7.30;;
56269;SDS011;42176;43.240;27.880;2022-12-26T06:06:44;24.17;;;13.27;;
56269;SDS011;42176;43.240;27.880;2022-12-26T06:09:10;14.00;;;8.10;;
56269;SDS011;42176;43.240;27.880;2022-12-26T06:11:35;25.42;;;12.95;;
56269;SDS011;42176;43.240;27.880;2022-12-26T06:14:00;7.88;;;4.25;;
56269;SDS011;42176;43.240;27.880;2022-12-26T06:16:26;7.78;;;4.32;;
56269;SDS011;42176;43.240;27.880;2022-12-26T06:18:53;8.63;;;4.55;;
56269;SDS011;42176;43.240;27.880;2022-12-26T06:21:19;6.35;;;2.97;;
56269;SDS011;42176;43.240;27.880;2022-12-26T06:23:46;5.63;;;3.05;;
56269;SDS011;42176;43.240;27.880;2022-12-26T06:26:13;6.65;;;3.83;;
56269;SDS011;42176;43.240;27.880;2022-12-26T06:28:39;11.02;;;5.50;;
56269;SDS011;42176;43.240;27.880;2022-12-26T06:31:07;5.63;;;4.00;;
56269;SDS011;42176;43.240;27.880;2022-12-26T06:33:35;11.25;;;6.82;;
56269;SDS011;42176;43.240;27.880;2022-12-26T06:36:02;6.97;;;3.85;;
56269;SDS011;42176;43.240;27.880;2022-12-26T06:38:32;11.82;;;4.13;;
56269;SDS011;42176;43.240;27.880;2022-12-26T06:40:58;7.00;;;4.82;;
56269;SDS011;42176;43.240;27.880;2022-12-26T06:43:23;11.95;;;6.65;;
56269;SDS011;42176;43.240;27.880;2022-12-26T06:45:55;7.05;;;3.67;;
56269;SDS011;42176;43.240;27.880;2022-12-26T06:48:22;9.30;;;4.55;;
56269;SDS011;42176;43.240;27.880;2022-12-26T06:50:48;8.80;;;5.20;;
56269;SDS011;42176;43.240;27.880;2022-12-26T06:53:14;10.60;;;6.18;;
56269;SDS011;42176;43.240;27.880;2022-12-26T06:55:39;4.55;;;2.85;;
56269;SDS011;42176;43.240;27.880;2022-12-26T06:58:05;11.73;;;5.60;;
56269;SDS011;42176;43.240;27.880;2022-12-26T07:00:30;16.33;;;6.85;;
56269;SDS011;42176;43.240;27.880;2022-12-26T07:02:56;23.83;;;9.40;;
56269;SDS011;42176;43.240;27.880;2022-12-26T07:05:21;15.32;;;8.43;;
56269;SDS011;42176;43.240;27.880;2022-12-26T07:07:50;17.48;;;7.35;;
56269;SDS011;42176;43.240;27.880;2022-12-26T07:10:16;20.20;;;10.80;;
56269;SDS011;42176;43.240;27.880;2022-12-26T07:12:43;21.70;;;9.50;;
56269;SDS011;42176;43.240;27.880;2022-12-26T07:15:09;24.63;;;10.52;;
56269;SDS011;42176;43.240;27.880;2022-12-26T07:17:35;18.02;;;10.10;;
56269;SDS011;42176;43.240;27.880;2022-12-26T07:20:01;17.48;;;10.75;;
56269;SDS011;42176;43.240;27.880;2022-12-26T07:22:28;20.42;;;9.75;;
56269;SDS011;42176;43.240;27.880;2022-12-26T07:24:53;19.33;;;8.25;;
56269;SDS011;42176;43.240;27.880;2022-12-26T07:27:19;19.38;;;10.38;;
56269;SDS011;42176;43.240;27.880;2022-12-26T07:29:45;16.67;;;9.25;;
56269;SDS011;42176;43.240;27.880;2022-12-26T07:32:11;17.20;;;8.02;;
56269;SDS011;42176;43.240;27.880;2022-12-26T07:34:37;14.27;;;7.65;;
56269;SDS011;42176;43.240;27.880;2022-12-26T07:37:02;9.48;;;6.82;;
56269;SDS011;42176;43.240;27.880;2022-12-26T07:39:28;8.13;;;4.88;;
56269;SDS011;42176;43.240;27.880;2022-12-26T07:41:53;9.65;;;5.20;;
56269;SDS011;42176;43.240;27.880;2022-12-26T07:44:22;15.82;;;5.38;;
56269;SDS011;42176;43.240;27.880;2022-12-26T07:46:48;6.78;;;4.05;;
56269;SDS011;42176;43.240;27.880;2022-12-26T07:49:14;7.60;;;4.72;;
56269;SDS011;42176;43.240;27.880;2022-12-26T07:51:40;13.13;;;4.18;;
56269;SDS011;42176;43.240;27.880;2022-12-26T07:54:06;6.68;;;4.40;;
56269;SDS011;42176;43.240;27.880;2022-12-26T07:56:32;5.78;;;3.80;;
56269;SDS011;42176;43.240;27.880;2022-12-26T07:58:57;2.65;;;2.42;;
56269;SDS011;42176;43.240;27.880;2022-12-26T08:01:23;5.00;;;2.72;;
56269;SDS011;42176;43.240;27.880;2022-12-26T08:03:49;6.30;;;3.90;;
56269;SDS011;42176;43.240;27.880;2022-12-26T08:06:15;6.03;;;3.53;;
56269;SDS011;42176;43.240;27.880;2022-12-26T08:08:43;21.00;;;11.07;;
56269;SDS011;42176;43.240;27.880;2022-12-26T08:11:12;25.85;;;13.32;;
56269;SDS011;42176;43.240;27.880;2022-12-26T08:13:39;61.08;;;24.95;;
56269;SDS011;42176;43.240;27.880;2022-12-26T08:16:05;74.20;;;32.83;;
56269;SDS011;42176;43.240;27.880;2022-12-26T08:18:32;83.45;;;33.17;;
56269;SDS011;42176;43.240;27.880;2022-12-26T08:20:58;82.15;;;34.78;;
56269;SDS011;42176;43.240;27.880;2022-12-26T08:23:23;112.47;;;44.15;;
56269;SDS011;42176;43.240;27.880;2022-12-26T08:25:49;87.00;;;41.33;;
56269;SDS011;42176;43.240;27.880;2022-12-26T08:28:14;91.30;;;35.15;;
56269;SDS011;42176;43.240;27.880;2022-12-26T08:30:40;82.72;;;30.30;;
56269;SDS011;42176;43.240;27.880;2022-12-26T08:33:06;101.57;;;43.40;;
56269;SDS011;42176;43.240;27.880;2022-12-26T08:35:35;99.43;;;39.47;;
56269;SDS011;42176;43.240;27.880;2022-12-26T08:38:01;87.60;;;32.47;;
56269;SDS011;42176;43.240;27.880;2022-12-26T08:40:28;101.05;;;35.72;;
56269;SDS011;42176;43.240;27.880;2022-12-26T08:42:53;92.05;;;34.75;;
56269;SDS011;42176;43.240;27.880;2022-12-26T08:45:19;82.28;;;37.08;;
56269;SDS011;42176;43.240;27.880;2022-12-26T08:47:44;86.85;;;35.08;;
56269;SDS011;42176;43.240;27.880;2022-12-26T08:50:10;88.50;;;32.15;;
56269;SDS011;42176;43.240;27.880;2022-12-26T08:52:35;93.53;;;38.08;;
56269;SDS011;42176;43.240;27.880;2022-12-26T08:55:01;59.28;;;25.10;;
56269;SDS011;42176;43.240;27.880;2022-12-26T08:57:27;76.97;;;30.83;;
56269;SDS011;42176;43.240;27.880;2022-12-26T08:59:52;62.17;;;27.02;;
56269;SDS011;42176;43.240;27.880;2022-12-26T09:02:18;62.83;;;27.10;;
56269;SDS011;42176;43.240;27.880;2022-12-26T09:04:43;47.67;;;19.90;;
56269;SDS011;42176;43.240;27.880;2022-12-26T09:07:09;40.55;;;17.88;;
56269;SDS011;42176;43.240;27.880;2022-12-26T09:09:34;36.95;;;16.73;;
56269;SDS011;42176;43.240;27.880;2022-12-26T09:12:00;37.58;;;16.58;;
56269;SDS011;42176;43.240;27.880;2022-12-26T09:14:26;34.67;;;13.63;;
56269;SDS011;42176;43.240;27.880;2022-12-26T09:16:51;21.30;;;12.10;;
56269;SDS011;42176;43.240;27.880;2022-12-26T09:19:19;20.73;;;9.00;;
56269;SDS011;42176;43.240;27.880;2022-12-26T09:21:45;14.07;;;6.03;;
56269;SDS011;42176;43.240;27.880;2022-12-26T09:24:14;18.00;;;9.05;;
56269;SDS011;42176;43.240;27.880;2022-12-26T09:26:42;20.55;;;7.60;;
56269;SDS011;42176;43.240;27.880;2022-12-26T09:29:08;9.70;;;5.28;;
56269;SDS011;42176;43.240;27.880;2022-12-26T09:31:36;8.90;;;4.45;;
56269;SDS011;42176;43.240;27.880;2022-12-26T09:34:05;18.17;;;6.40;;
56269;SDS011;42176;43.240;27.880;2022-12-26T09:36:32;8.68;;;4.88;;
56269;SDS011;42176;43.240;27.880;2022-12-26T09:39:01;12.05;;;5.70;;
56269;SDS011;42176;43.240;27.880;2022-12-26T09:44:27;8.68;;;4.28;;
56269;SDS011;42176;43.240;27.880;2022-12-26T09:47:20;7.45;;;4.10;;
56269;SDS011;42176;43.240;27.880;2022-12-26T09:50:41;7.07;;;3.50;;
56269;SDS011;42176;43.240;27.880;2022-12-26T09:52:51;8.70;;;4.07;;
56269;SDS011;42176;43.240;27.880;2022-12-26T09:55:35;11.35;;;4.15;;
56269;SDS011;42176;43.240;27.880;2022-12-26T10:00:54;8.05;;;4.97;;
56269;SDS011;42176;43.240;27.880;2022-12-26T10:03:21;5.40;;;2.97;;
56269;SDS011;42176;43.240;27.880;2022-12-26T10:05:59;6.70;;;3.38;;
56269;SDS011;42176;43.240;27.880;2022-12-26T10:08:47;6.43;;;3.58;;
56269;SDS011;42176;43.240;27.880;2022-12-26T10:16:55;6.43;;;3.58;;
56269;SDS011;42176;43.240;27.880;2022-12-26T10:25:12;8.68;;;3.50;;
56269;SDS011;42176;43.240;27.880;2022-12-26T10:27:42;7.80;;;3.15;;
56269;SDS011;42176;43.240;27.880;2022-12-26T10:30:22;8.18;;;3.25;;
56269;SDS011;42176;43.240;27.880;2022-12-26T10:32:55;6.72;;;2.75;;
56269;SDS011;42176;43.240;27.880;2022-12-26T10:40:55;9.05;;;4.15;;
56269;SDS011;42176;43.240;27.880;2022-12-26T10:43:29;2.28;;;1.83;;
56269;SDS011;42176;43.240;27.880;2022-12-26T10:46:15;7.28;;;3.40;;
56269;SDS011;42176;43.240;27.880;2022-12-26T10:49:03;5.40;;;3.95;;
56269;SDS011;42176;43.240;27.880;2022-12-26T10:51:29;6.72;;;3.95;;
56269;SDS011;42176;43.240;27.880;2022-12-26T10:53:55;4.40;;;3.10;;
56269;SDS011;42176;43.240;27.880;2022-12-26T10:56:21;5.50;;;2.90;;
56269;SDS011;42176;43.240;27.880;2022-12-26T10:58:57;5.35;;;3.10;;
56269;SDS011;42176;43.240;27.880;2022-12-26T11:03:54;8.27;;;3.97;;
56269;SDS011;42176;43.240;27.880;2022-12-26T11:06:26;11.48;;;5.72;;
56269;SDS011;42176;43.240;27.880;2022-12-26T11:08:55;13.10;;;8.02;;
56269;SDS011;42176;43.240;27.880;2022-12-26T11:11:22;9.18;;;5.15;;
56269;SDS011;42176;43.240;27.880;2022-12-26T11:16:57;8.35;;;4.90;;
56269;SDS011;42176;43.240;27.880;2022-12-26T11:19:42;11.02;;;4.57;;
56269;SDS011;42176;43.240;27.880;2022-12-26T11:27:34;16.08;;;3.70;;
56269;SDS011;42176;43.240;27.880;2022-12-26T11:32:46;7.68;;;2.75;;
56269;SDS011;42176;43.240;27.880;2022-12-26T11:35:25;4.43;;;2.45;;
56269;SDS011;42176;43.240;27.880;2022-12-26T11:37:58;6.15;;;2.35;;
56269;SDS011;42176;43.240;27.880;2022-12-26T11:40:27;4.75;;;2.25;;
56269;SDS011;42176;43.240;27.880;2022-12-26T11:42:57;4.10;;;2.53;;
56269;SDS011;42176;43.240;27.880;2022-12-26T11:45:27;4.25;;;2.63;;
56269;SDS011;42176;43.240;27.880;2022-12-26T11:47:54;4.63;;;1.98;;
56269;SDS011;42176;43.240;27.880;2022-12-26T11:50:24;3.55;;;2.33;;
56269;SDS011;42176;43.240;27.880;2022-12-26T11:52:53;3.50;;;1.88;;
56269;SDS011;42176;43.240;27.880;2022-12-26T11:55:33;4.63;;;2.42;;
56269;SDS011;42176;43.240;27.880;2022-12-26T12:02:58;2.58;;;1.50;;
56269;SDS011;42176;43.240;27.880;2022-12-26T12:08:14;5.22;;;2.10;;
56269;SDS011;42176;43.240;27.880;2022-12-26T12:13:58;4.63;;;1.83;;
56269;SDS011;42176;43.240;27.880;2022-12-26T12:19:41;3.60;;;1.77;;
56269;SDS011;42176;43.240;27.880;2022-12-26T12:22:02;4.75;;;1.15;;
56269;SDS011;42176;43.240;27.880;2022-12-26T12:24:53;4.07;;;1.42;;
56269;SDS011;42176;43.240;27.880;2022-12-26T12:27:42;2.55;;;1.65;;
56269;SDS011;42176;43.240;27.880;2022-12-26T12:30:18;4.70;;;1.63;;
56269;SDS011;42176;43.240;27.880;2022-12-26T12:33:10;4.68;;;1.35;;
56269;SDS011;42176;43.240;27.880;2022-12-26T12:58:15;5.75;;;3.22;;
56269;SDS011;42176;43.240;27.880;2022-12-26T13:00:45;7.75;;;4.00;;
56269;SDS011;42176;43.240;27.880;2022-12-26T13:06:04;6.35;;;3.75;;
56269;SDS011;42176;43.240;27.880;2022-12-26T13:11:52;5.90;;;2.60;;
56269;SDS011;42176;43.240;27.880;2022-12-26T13:17:03;10.38;;;5.25;;
56269;SDS011;42176;43.240;27.880;2022-12-26T13:19:36;5.15;;;3.03;;
56269;SDS011;42176;43.240;27.880;2022-12-26T13:22:11;4.82;;;2.85;;
56269;SDS011;42176;43.240;27.880;2022-12-26T13:24:45;5.97;;;3.50;;
56269;SDS011;42176;43.240;27.880;2022-12-26T13:29:50;10.60;;;4.53;;
56269;SDS011;42176;43.240;27.880;2022-12-26T13:34:46;10.15;;;5.10;;
56269;SDS011;42176;43.240;27.880;2022-12-26T13:39:59;10.90;;;5.15;;
56269;SDS011;42176;43.240;27.880;2022-12-26T13:42:30;10.02;;;5.43;;
56269;SDS011;42176;43.240;27.880;2022-12-26T13:48:53;9.60;;;5.43;;
56269;SDS011;42176;43.240;27.880;2022-12-26T13:53:38;9.00;;;5.90;;
56269;SDS011;42176;43.240;27.880;2022-12-26T13:58:51;12.63;;;7.05;;
56269;SDS011;42176;43.240;27.880;2022-12-26T14:09:57;10.50;;;6.15;;
56269;SDS011;42176;43.240;27.880;2022-12-26T14:13:07;8.32;;;4.75;;
56269;SDS011;42176;43.240;27.880;2022-12-26T14:18:47;16.70;;;7.18;;
56269;SDS011;42176;43.240;27.880;2022-12-26T14:29:26;20.90;;;8.27;;
56269;SDS011;42176;43.240;27.880;2022-12-26T14:34:50;14.40;;;7.70;;
56269;SDS011;42176;43.240;27.880;2022-12-26T14:40:19;18.38;;;8.85;;
56269;SDS011;42176;43.240;27.880;2022-12-26T14:45:39;18.73;;;11.68;;
56269;SDS011;42176;43.240;27.880;2022-12-26T14:50:48;21.60;;;10.85;;
56269;SDS011;42176;43.240;27.880;2022-12-26T15:29:15;26.23;;;14.07;;
56269;SDS011;42176;43.240;27.880;2022-12-26T15:34:53;25.98;;;12.88;;
56269;SDS011;42176;43.240;27.880;2022-12-26T15:40:33;29.45;;;13.02;;
56269;SDS011;42176;43.240;27.880;2022-12-26T15:48:51;30.40;;;15.80;;
56269;SDS011;42176;43.240;27.880;2022-12-26T15:57:24;25.13;;;12.45;;
56269;SDS011;42176;43.240;27.880;2022-12-26T16:02:34;27.10;;;12.73;;
56269;SDS011;42176;43.240;27.880;2022-12-26T16:05:23;19.17;;;10.98;;
56269;SDS011;42176;43.240;27.880;2022-12-26T16:08:14;23.35;;;12.50;;
56269;SDS011;42176;43.240;27.880;2022-12-26T16:10:42;16.33;;;7.75;;
56269;SDS011;42176;43.240;27.880;2022-12-26T16:15:43;23.60;;;13.85;;
56269;SDS011;42176;43.240;27.880;2022-12-26T16:18:14;21.67;;;10.63;;
56269;SDS011;42176;43.240;27.880;2022-12-26T16:20:42;31.58;;;13.45;;
56269;SDS011;42176;43.240;27.880;2022-12-26T16:23:29;22.60;;;13.93;;
56269;SDS011;42176;43.240;27.880;2022-12-26T16:25:57;26.30;;;14.57;;
56269;SDS011;42176;43.240;27.880;2022-12-26T16:28:45;27.02;;;14.18;;
56269;SDS011;42176;43.240;27.880;2022-12-26T16:31:15;16.27;;;8.30;;
56269;SDS011;42176;43.240;27.880;2022-12-26T16:33:44;21.52;;;11.35;;
56269;SDS011;42176;43.240;27.880;2022-12-26T16:36:13;29.25;;;15.85;;
56269;SDS011;42176;43.240;27.880;2022-12-26T16:38:48;30.30;;;13.75;;
56269;SDS011;42176;43.240;27.880;2022-12-26T16:43:50;36.88;;;16.45;;
56269;SDS011;42176;43.240;27.880;2022-12-26T16:46:18;21.15;;;12.35;;
56269;SDS011;42176;43.240;27.880;2022-12-26T16:48:50;31.08;;;12.15;;
56269;SDS011;42176;43.240;27.880;2022-12-26T16:51:43;24.65;;;13.18;;
56269;SDS011;42176;43.240;27.880;2022-12-26T16:56:50;25.52;;;13.35;;
56269;SDS011;42176;43.240;27.880;2022-12-26T16:59:20;31.25;;;11.43;;
56269;SDS011;42176;43.240;27.880;2022-12-26T17:01:48;29.95;;;15.43;;
56269;SDS011;42176;43.240;27.880;2022-12-26T17:04:18;31.02;;;15.27;;
56269;SDS011;42176;43.240;27.880;2022-12-26T17:06:48;19.80;;;9.70;;
56269;SDS011;42176;43.240;27.880;2022-12-26T17:09:17;21.23;;;11.07;;
56269;SDS011;42176;43.240;27.880;2022-12-26T17:14:24;33.40;;;16.33;;
56269;SDS011;42176;43.240;27.880;2022-12-26T17:17:03;19.80;;;11.57;;
56269;SDS011;42176;43.240;27.880;2022-12-26T17:19:31;18.88;;;10.40;;
56269;SDS011;42176;43.240;27.880;2022-12-26T17:22:41;25.40;;;14.68;;
56269;SDS011;42176;43.240;27.880;2022-12-26T17:30:31;27.42;;;15.30;;
56269;SDS011;42176;43.240;27.880;2022-12-26T17:33:01;19.33;;;10.00;;
56269;SDS011;42176;43.240;27.880;2022-12-26T17:35:36;23.05;;;11.90;;
56269;SDS011;42176;43.240;27.880;2022-12-26T17:38:03;25.35;;;14.63;;
56269;SDS011;42176;43.240;27.880;2022-12-26T17:40:36;22.13;;;12.52;;
56269;SDS011;42176;43.240;27.880;2022-12-26T17:43:06;30.90;;;12.70;;
56269;SDS011;42176;43.240;27.880;2022-12-26T17:45:51;33.25;;;12.30;;
56269;SDS011;42176;43.240;27.880;2022-12-26T17:48:17;29.08;;;16.73;;
56269;SDS011;42176;43.240;27.880;2022-12-26T17:50:43;30.38;;;12.85;;
56269;SDS011;42176;43.240;27.880;2022-12-26T17:55:46;24.63;;;12.90;;
56269;SDS011;42176;43.240;27.880;2022-12-26T17:58:11;29.25;;;14.32;;
56269;SDS011;42176;43.240;27.880;2022-12-26T18:00:37;24.55;;;12.63;;
56269;SDS011;42176;43.240;27.880;2022-12-26T18:03:03;25.65;;;13.35;;
56269;SDS011;42176;43.240;27.880;2022-12-26T18:05:28;25.92;;;13.93;;
56269;SDS011;42176;43.240;27.880;2022-12-26T18:07:54;20.55;;;11.88;;
56269;SDS011;42176;43.240;27.880;2022-12-26T18:10:22;23.65;;;11.65;;
56269;SDS011;42176;43.240;27.880;2022-12-26T18:12:50;26.70;;;14.30;;
56269;SDS011;42176;43.240;27.880;2022-12-26T18:15:16;21.70;;;12.73;;
56269;SDS011;42176;43.240;27.880;2022-12-26T18:17:43;35.85;;;19.45;;
56269;SDS011;42176;43.240;27.880;2022-12-26T18:20:16;25.67;;;12.65;;
56269;SDS011;42176;43.240;27.880;2022-12-26T18:22:52;24.20;;;12.88;;
56269;SDS011;42176;43.240;27.880;2022-12-26T18:25:18;21.95;;;12.02;;
56269;SDS011;42176;43.240;27.880;2022-12-26T18:27:46;29.50;;;12.55;;
56269;SDS011;42176;43.240;27.880;2022-12-26T18:30:16;28.75;;;15.95;;
56269;SDS011;42176;43.240;27.880;2022-12-26T18:32:43;29.25;;;15.68;;
56269;SDS011;42176;43.240;27.880;2022-12-26T18:35:10;26.25;;;11.88;;
56269;SDS011;42176;43.240;27.880;2022-12-26T18:37:36;27.95;;;12.73;;
56269;SDS011;42176;43.240;27.880;2022-12-26T18:40:02;27.15;;;13.07;;
56269;SDS011;42176;43.240;27.880;2022-12-26T18:42:29;32.75;;;16.35;;
56269;SDS011;42176;43.240;27.880;2022-12-26T18:44:54;30.05;;;16.23;;
56269;SDS011;42176;43.240;27.880;2022-12-26T18:47:20;25.42;;;13.27;;
56269;SDS011;42176;43.240;27.880;2022-12-26T18:49:46;30.73;;;14.43;;
56269;SDS011;42176;43.240;27.880;2022-12-26T18:52:12;22.98;;;12.25;;
56269;SDS011;42176;43.240;27.880;2022-12-26T18:54:38;24.83;;;13.13;;
56269;SDS011;42176;43.240;27.880;2022-12-26T18:57:04;27.38;;;13.60;;